Time;durP1;ratioP1;P1;durP2;ratioP2;P2;SDS_P1;SDS_P2;PMS_P1;PMS_P2;Temp;Humidity;BMP_temperature;BMP_pressure;BME280_temperature;BME280_humidity;BME280_pressure;Samples;Min_cycle;Max_cycle;Signal;HPM_P1;HPM_P2
2022/08/20 00:00:35;;;;;;;;;;;24.50;56.80;;;;;;5044699;28;19927;-61
2022/08/20 00:03:02;;;;;;;;;;;24.50;56.80;;;;;;5035901;28;20377;-60
2022/08/20 00:05:30;;;;;;;;;;;24.50;56.70;;;;;;5025098;28;20031;-59
2022/08/20 00:07:58;;;;;;;;;;;24.50;56.70;;;;;;5023661;28;19921;-60
2022/08/20 00:10:24;;;;;;;;;;;24.50;56.60;;;;;;5024782;28;19927;-60
2022/08/20 00:12:52;;;;;;;;;;;24.50;56.50;;;;;;5040663;28;19968;-60
2022/08/20 00:15:20;;;;;;;;;;;24.50;56.40;;;;;;5040710;28;19979;-60
2022/08/20 00:17:47;;;;;;;;;;;24.40;56.20;;;;;;5032002;28;19921;-60
2022/08/20 00:20:14;;;;;;;;;;;24.40;56.10;;;;;;5042904;28;19971;-60
2022/08/20 00:22:40;;;;;;;;;;;24.40;56.00;;;;;;5032624;28;19964;-60
2022/08/20 00:25:07;;;;;;;;;;;24.40;55.90;;;;;;5032926;28;20384;-60
2022/08/20 00:27:34;;;;;;;;;;;24.40;55.80;;;;;;5043816;28;19974;-60
2022/08/20 00:30:03;;;;;;;;;;;24.40;55.70;;;;;;5036540;28;19990;-60
2022/08/20 00:32:30;;;;;;;;;;;24.40;55.50;;;;;;5032789;28;20015;-60
2022/08/20 00:34:57;;;;;;;;;;;24.30;55.40;;;;;;5036107;28;19978;-60
2022/08/20 00:37:23;;;;;;;;;;;24.30;55.30;;;;;;5031487;28;19921;-60
2022/08/20 00:39:50;;;;;;;;;;;24.30;55.20;;;;;;5054081;28;19924;-60
2022/08/20 00:42:17;;;;;;;;;;;24.30;55.10;;;;;;5026623;28;19947;-60
2022/08/20 00:44:44;;;;;;;;;;;24.30;55.00;;;;;;5029272;28;19967;-60
2022/08/20 00:47:12;;;;;;;;;;;24.30;55.00;;;;;;5012431;28;20038;-60
2022/08/20 00:49:39;;;;;;;;;;;24.30;54.90;;;;;;5030633;28;20035;-60
2022/08/20 00:52:06;;;;;;;;;;;24.30;54.70;;;;;;5031369;28;19925;-60
2022/08/20 00:54:33;;;;;;;;;;;24.30;54.70;;;;;;5021588;28;19920;-60
2022/08/20 00:57:02;;;;;;;;;;;24.30;54.60;;;;;;5027827;28;19932;-60
2022/08/20 00:59:29;;;;;;;;;;;24.20;54.50;;;;;;5030765;28;19925;-60
2022/08/20 01:01:56;;;;;;;;;;;24.20;54.40;;;;;;5042394;28;19928;-60
2022/08/20 01:04:25;;;;;;;;;;;24.20;54.40;;;;;;5039493;28;19928;-60
2022/08/20 01:06:52;;;;;;;;;;;24.20;54.30;;;;;;5047312;28;20016;-60
2022/08/20 01:09:18;;;;;;;;;;;24.20;54.30;;;;;;5027776;28;19925;-60
2022/08/20 01:11:45;;;;;;;;;;;24.20;54.30;;;;;;5050039;28;19920;-60
2022/08/20 01:14:23;;;;;;;;;;;24.20;54.20;;;;;;5029254;28;19958;-60
2022/08/20 01:16:50;;;;;;;;;;;24.20;54.10;;;;;;5030698;28;19951;-60
2022/08/20 01:19:17;;;;;;;;;;;24.20;54.10;;;;;;5011977;28;19975;-60
2022/08/20 01:21:45;;;;;;;;;;;24.20;54.00;;;;;;5030925;28;19921;-60
2022/08/20 01:24:13;;;;;;;;;;;24.20;54.00;;;;;;5031618;28;19937;-60
2022/08/20 01:26:42;;;;;;;;;;;24.20;53.90;;;;;;5047302;28;19917;-60
2022/08/20 01:29:10;;;;;;;;;;;24.20;53.90;;;;;;5048754;28;19948;-60
2022/08/20 01:31:37;;;;;;;;;;;24.20;53.80;;;;;;5066141;28;19920;-60
2022/08/20 01:34:05;;;;;;;;;;;24.10;53.70;;;;;;5052066;28;19920;-60
2022/08/20 01:36:33;;;;;;;;;;;24.10;53.70;;;;;;5049111;28;19921;-60
2022/08/20 01:39:00;;;;;;;;;;;24.10;53.70;;;;;;5031787;28;19920;-60
2022/08/20 01:41:35;;;;;;;;;;;24.10;53.70;;;;;;5049031;28;20217;-60
2022/08/20 01:44:03;;;;;;;;;;;24.10;53.60;;;;;;5052388;28;19921;-60
2022/08/20 01:46:31;;;;;;;;;;;24.10;53.50;;;;;;5031425;28;20034;-60
2022/08/20 01:48:58;;;;;;;;;;;24.10;53.50;;;;;;5033559;28;20050;-60
2022/08/20 01:51:26;;;;;;;;;;;24.10;53.40;;;;;;5035904;28;19959;-60
2022/08/20 01:53:54;;;;;;;;;;;24.10;53.40;;;;;;5032878;28;19978;-60
2022/08/20 01:56:21;;;;;;;;;;;24.10;53.30;;;;;;5031658;28;20016;-60
2022/08/20 01:58:51;;;;;;;;;;;24.10;53.20;;;;;;5051600;28;20445;-60
2022/08/20 02:01:20;;;;;;;;;;;24.10;53.70;;;;;;5025522;28;20028;-60
2022/08/20 02:03:47;;;;;;;;;;;24.10;53.10;;;;;;5015652;28;19920;-58
2022/08/20 02:06:14;;;;;;;;;;;24.10;53.00;;;;;;5043403;28;20019;-60
2022/08/20 02:08:41;;;;;;;;;;;24.10;53.00;;;;;;5034143;28;19967;-60
2022/08/20 02:11:08;;;;;;;;;;;24.10;53.00;;;;;;5051702;28;19924;-60
2022/08/20 02:13:35;;;;;;;;;;;24.10;52.90;;;;;;5035407;28;19920;-61
2022/08/20 02:16:01;;;;;;;;;;;24.10;53.00;;;;;;5031464;28;20353;-61
2022/08/20 02:18:29;;;;;;;;;;;24.10;53.00;;;;;;5031604;28;20051;-61
2022/08/20 02:20:56;;;;;;;;;;;24.10;53.00;;;;;;5042297;28;19986;-61
2022/08/20 02:23:23;;;;;;;;;;;24.10;53.00;;;;;;5049120;28;19933;-61
2022/08/20 02:25:50;;;;;;;;;;;24.00;53.00;;;;;;5022146;28;19921;-60
2022/08/20 02:28:18;;;;;;;;;;;24.00;53.00;;;;;;5050296;28;19921;-60
2022/08/20 02:30:46;;;;;;;;;;;24.10;53.30;;;;;;5021112;28;19974;-58
2022/08/20 02:33:14;;;;;;;;;;;24.00;53.30;;;;;;5034201;28;19921;-60
2022/08/20 02:35:42;;;;;;;;;;;24.00;53.40;;;;;;5025567;28;19932;-60
2022/08/20 02:38:09;;;;;;;;;;;24.00;53.50;;;;;;5051921;28;19925;-61
2022/08/20 02:40:38;;;;;;;;;;;24.00;54.10;;;;;;5034504;28;20533;-61
2022/08/20 02:43:04;;;;;;;;;;;24.10;53.70;;;;;;5017966;28;19928;-60
2022/08/20 02:45:34;;;;;;;;;;;24.00;53.70;;;;;;5034397;28;19924;-58
2022/08/20 02:48:01;;;;;;;;;;;24.00;53.80;;;;;;5025808;28;19925;-59
2022/08/20 02:50:28;;;;;;;;;;;24.10;54.00;;;;;;5035166;28;19927;-59
2022/08/20 02:52:56;;;;;;;;;;;24.00;53.90;;;;;;5028072;28;19975;-59
2022/08/20 02:55:23;;;;;;;;;;;24.10;54.10;;;;;;5028479;28;19952;-59
2022/08/20 02:57:49;;;;;;;;;;;24.10;54.20;;;;;;5050853;28;19924;-60
2022/08/20 03:00:17;;;;;;;;;;;24.10;54.30;;;;;;5017197;28;19936;-59
2022/08/20 03:02:44;;;;;;;;;;;24.10;54.40;;;;;;5050983;28;19924;-59
2022/08/20 03:05:11;;;;;;;;;;;24.10;54.50;;;;;;5031456;28;19960;-60
2022/08/20 03:07:41;;;;;;;;;;;24.10;54.50;;;;;;5038645;28;20382;-60
2022/08/20 03:10:10;;;;;;;;;;;24.10;54.60;;;;;;5024642;28;19927;-60
2022/08/20 03:12:37;;;;;;;;;;;24.10;54.70;;;;;;5041988;28;19967;-60
2022/08/20 03:15:04;;;;;;;;;;;24.10;54.70;;;;;;5030387;28;20262;-60
2022/08/20 03:17:31;;;;;;;;;;;24.10;54.80;;;;;;5049431;28;19929;-59
2022/08/20 03:19:58;;;;;;;;;;;24.10;54.80;;;;;;5024493;28;20370;-59
2022/08/20 03:22:24;;;;;;;;;;;24.10;54.90;;;;;;5031112;28;19920;-60
2022/08/20 03:24:51;;;;;;;;;;;24.10;54.90;;;;;;5034125;28;19932;-59
2022/08/20 03:27:19;;;;;;;;;;;24.10;55.00;;;;;;5029950;28;19956;-59
2022/08/20 03:29:46;;;;;;;;;;;24.10;55.10;;;;;;5013301;28;19922;-59
2022/08/20 03:32:13;;;;;;;;;;;24.10;55.20;;;;;;5028962;28;19920;-59
2022/08/20 03:34:39;;;;;;;;;;;24.10;55.30;;;;;;5042745;28;19921;-60
2022/08/20 03:37:06;;;;;;;;;;;24.10;55.40;;;;;;5026257;28;19925;-59
2022/08/20 03:39:33;;;;;;;;;;;24.10;55.40;;;;;;5033057;28;20354;-60
2022/08/20 03:42:00;;;;;;;;;;;24.10;55.50;;;;;;5045614;28;19985;-59
2022/08/20 03:44:28;;;;;;;;;;;24.10;55.60;;;;;;5023613;28;19960;-60
2022/08/20 03:46:54;;;;;;;;;;;24.10;55.70;;;;;;5041673;28;19951;-59
2022/08/20 03:49:23;;;;;;;;;;;24.10;55.80;;;;;;5032046;28;19986;-59
2022/08/20 03:51:50;;;;;;;;;;;24.10;55.80;;;;;;5051356;28;20012;-60
2022/08/20 03:54:16;;;;;;;;;;;24.10;55.90;;;;;;5050265;28;19932;-60
2022/08/20 03:56:43;;;;;;;;;;;24.10;56.00;;;;;;5023040;28;19932;-59
2022/08/20 03:59:10;;;;;;;;;;;24.10;56.00;;;;;;5029139;28;19979;-59
2022/08/20 04:01:38;;;;;;;;;;;24.10;56.00;;;;;;5029382;28;20275;-59
2022/08/20 04:04:05;;;;;;;;;;;24.10;56.10;;;;;;5041015;28;20430;-59
2022/08/20 04:06:32;;;;;;;;;;;24.10;56.10;;;;;;5019758;28;19928;-59
2022/08/20 04:08:58;;;;;;;;;;;24.10;56.10;;;;;;5048219;28;19940;-59
2022/08/20 04:11:25;;;;;;;;;;;24.10;56.10;;;;;;5019274;28;19921;-59
2022/08/20 04:13:52;;;;;;;;;;;24.10;56.20;;;;;;5032470;28;19924;-59
2022/08/20 04:16:18;;;;;;;;;;;24.10;56.30;;;;;;5049648;28;20334;-59
2022/08/20 04:18:47;;;;;;;;;;;24.10;56.30;;;;;;5032848;28;19975;-60
2022/08/20 04:21:14;;;;;;;;;;;24.10;56.40;;;;;;5035273;28;19932;-59
2022/08/20 04:23:41;;;;;;;;;;;24.10;56.50;;;;;;5046270;28;20035;-59
2022/08/20 04:26:08;;;;;;;;;;;24.10;56.50;;;;;;5049790;28;19925;-59
2022/08/20 04:28:35;;;;;;;;;;;24.10;56.60;;;;;;5032810;28;19925;-60
2022/08/20 04:31:02;;;;;;;;;;;24.10;56.70;;;;;;5029929;28;19991;-59
2022/08/20 04:33:29;;;;;;;;;;;24.10;56.70;;;;;;5031634;28;19985;-60
2022/08/20 04:35:59;;;;;;;;;;;24.10;56.70;;;;;;5031816;28;20283;-59
2022/08/20 04:38:26;;;;;;;;;;;24.10;56.70;;;;;;5043332;28;19921;-60
2022/08/20 04:40:56;;;;;;;;;;;24.10;56.70;;;;;;5032750;28;19996;-59
2022/08/20 04:43:24;;;;;;;;;;;24.10;56.80;;;;;;5012736;28;20007;-60
2022/08/20 04:45:51;;;;;;;;;;;24.10;56.70;;;;;;5047322;28;19920;-60
2022/08/20 04:48:18;;;;;;;;;;;24.10;56.80;;;;;;5050715;28;19927;-60
2022/08/20 04:50:45;;;;;;;;;;;24.10;56.80;;;;;;5029654;28;20314;-60
2022/08/20 04:53:15;;;;;;;;;;;24.10;56.80;;;;;;5029890;28;20011;-59
2022/08/20 04:55:42;;;;;;;;;;;24.10;56.80;;;;;;5031034;28;20144;-59
2022/08/20 04:58:10;;;;;;;;;;;24.10;56.90;;;;;;5020970;28;19921;-60
2022/08/20 05:00:37;;;;;;;;;;;24.10;56.90;;;;;;5028781;28;19947;-60
2022/08/20 05:03:05;;;;;;;;;;;24.10;57.00;;;;;;5028203;28;19924;-59
2022/08/20 05:05:33;;;;;;;;;;;24.10;57.00;;;;;;5029580;28;19970;-60
2022/08/20 05:08:00;;;;;;;;;;;24.10;57.00;;;;;;5011059;28;19925;-60
2022/08/20 05:10:28;;;;;;;;;;;24.10;57.10;;;;;;5009859;28;19956;-60
2022/08/20 05:12:55;;;;;;;;;;;24.10;57.10;;;;;;5037379;28;19936;-59
2022/08/20 05:15:24;;;;;;;;;;;24.10;57.10;;;;;;5027037;28;19998;-59
2022/08/20 05:17:54;;;;;;;;;;;24.10;57.20;;;;;;5025133;28;20430;-58
2022/08/20 05:20:20;;;;;;;;;;;24.10;57.20;;;;;;5047228;28;19982;-59
2022/08/20 05:22:47;;;;;;;;;;;24.00;57.20;;;;;;5018856;28;20026;-59
2022/08/20 05:25:14;;;;;;;;;;;24.10;57.40;;;;;;5029242;28;20547;-59
2022/08/20 05:27:42;;;;;;;;;;;24.10;57.40;;;;;;5043103;28;20036;-59
2022/08/20 05:30:09;;;;;;;;;;;24.10;57.40;;;;;;5036589;28;19988;-59
2022/08/20 05:32:36;;;;;;;;;;;24.10;57.50;;;;;;5059016;28;19956;-59
2022/08/20 05:35:03;;;;;;;;;;;24.10;57.60;;;;;;5047307;28;19920;-59
2022/08/20 05:37:30;;;;;;;;;;;24.00;57.50;;;;;;5052483;28;19982;-59
2022/08/20 05:39:57;;;;;;;;;;;24.10;57.70;;;;;;5049716;28;19921;-59
2022/08/20 05:42:24;;;;;;;;;;;24.00;57.60;;;;;;5036346;28;19929;-59
2022/08/20 05:44:53;;;;;;;;;;;24.00;57.70;;;;;;5039845;28;19931;-59
2022/08/20 05:47:26;;;;;;;;;;;24.00;57.70;;;;;;5030016;28;19920;-59
2022/08/20 05:49:53;;;;;;;;;;;24.00;57.80;;;;;;5040724;28;19968;-60
2022/08/20 05:52:20;;;;;;;;;;;24.00;57.90;;;;;;5054763;28;19983;-59
2022/08/20 05:54:46;;;;;;;;;;;24.00;58.00;;;;;;5034396;28;19955;-59
2022/08/20 05:57:17;;;;;;;;;;;24.00;58.00;;;;;;5028928;28;19948;-59
2022/08/20 05:59:44;;;;;;;;;;;24.00;58.10;;;;;;5027167;28;19928;-59
2022/08/20 06:04:53;;;;;;;;;;;24.00;58.20;;;;;;5031013;28;19933;-59
2022/08/20 06:07:19;;;;;;;;;;;24.00;58.30;;;;;;5047856;28;19920;-59
2022/08/20 06:09:47;;;;;;;;;;;24.00;58.40;;;;;;5037892;28;19921;-59
2022/08/20 06:12:14;;;;;;;;;;;24.00;58.40;;;;;;5037519;28;19920;-59
2022/08/20 06:14:40;;;;;;;;;;;24.00;58.50;;;;;;5050897;28;19924;-59
2022/08/20 06:17:09;;;;;;;;;;;24.00;58.60;;;;;;5035641;28;19921;-60
2022/08/20 06:19:37;;;;;;;;;;;24.00;58.60;;;;;;5032840;28;20307;-60
2022/08/20 06:22:04;;;;;;;;;;;24.00;58.70;;;;;;5041289;28;20012;-60
2022/08/20 06:24:31;;;;;;;;;;;24.00;58.70;;;;;;5055798;28;20327;-60
2022/08/20 06:26:57;;;;;;;;;;;24.00;58.70;;;;;;5033467;28;19978;-60
2022/08/20 06:29:24;;;;;;;;;;;24.00;58.80;;;;;;5034909;28;19921;-59
2022/08/20 06:31:51;;;;;;;;;;;24.00;58.90;;;;;;5024791;28;19943;-59
2022/08/20 06:34:18;;;;;;;;;;;24.00;59.00;;;;;;5021868;28;19921;-59
2022/08/20 06:36:46;;;;;;;;;;;24.00;59.00;;;;;;5038738;28;19921;-60
2022/08/20 06:39:13;;;;;;;;;;;24.00;59.10;;;;;;5026232;28;19921;-59
2022/08/20 06:41:40;;;;;;;;;;;24.00;59.10;;;;;;5047370;28;19990;-59
2022/08/20 06:44:06;;;;;;;;;;;24.00;59.20;;;;;;5051583;28;19967;-59
2022/08/20 06:46:34;;;;;;;;;;;24.00;59.20;;;;;;5028972;28;19931;-59
2022/08/20 06:49:02;;;;;;;;;;;24.00;59.20;;;;;;5033244;28;20015;-59
2022/08/20 06:51:29;;;;;;;;;;;24.00;59.30;;;;;;5037348;28;19927;-59
2022/08/20 06:53:57;;;;;;;;;;;24.00;59.30;;;;;;5031433;28;20018;-59
2022/08/20 06:56:24;;;;;;;;;;;24.00;59.30;;;;;;5015923;28;19960;-60
2022/08/20 06:58:50;;;;;;;;;;;24.00;59.40;;;;;;5048729;28;19927;-59
2022/08/20 07:01:19;;;;;;;;;;;24.00;59.40;;;;;;5025526;28;20393;-59
2022/08/20 07:03:46;;;;;;;;;;;24.00;59.40;;;;;;5026880;28;20009;-60
2022/08/20 07:06:14;;;;;;;;;;;24.00;59.50;;;;;;5014138;28;20146;-59
2022/08/20 07:08:41;;;;;;;;;;;24.00;59.60;;;;;;5027506;28;19921;-60
2022/08/20 07:11:09;;;;;;;;;;;24.00;59.70;;;;;;5056723;28;19931;-60
2022/08/20 07:13:36;;;;;;;;;;;24.10;59.80;;;;;;5039685;28;19932;-60
2022/08/20 07:16:03;;;;;;;;;;;24.00;59.70;;;;;;5046812;28;19920;-60
2022/08/20 07:18:30;;;;;;;;;;;24.10;59.80;;;;;;5031711;28;19987;-60
2022/08/20 07:20:57;;;;;;;;;;;24.10;59.90;;;;;;5037634;28;19983;-60
2022/08/20 07:23:23;;;;;;;;;;;24.10;59.80;;;;;;5054133;28;19939;-60
2022/08/20 07:25:50;;;;;;;;;;;24.10;59.80;;;;;;5031881;28;19925;-60
2022/08/20 07:28:18;;;;;;;;;;;24.10;59.90;;;;;;5038080;28;19948;-60
2022/08/20 07:33:30;;;;;;;;;;;24.10;59.90;;;;;;5052774;28;19932;-60
2022/08/20 07:35:56;;;;;;;;;;;24.00;59.80;;;;;;5034229;28;20075;-60
2022/08/20 07:38:24;;;;;;;;;;;24.10;59.90;;;;;;5052319;28;20347;-60
2022/08/20 07:40:50;;;;;;;;;;;24.10;59.90;;;;;;5037230;28;19999;-60
2022/08/20 07:43:20;;;;;;;;;;;24.10;59.90;;;;;;5052061;28;19964;-60
2022/08/20 07:45:47;;;;;;;;;;;24.10;59.90;;;;;;5035198;28;19971;-60
2022/08/20 07:48:14;;;;;;;;;;;24.10;60.00;;;;;;5051436;28;19940;-60
2022/08/20 07:50:41;;;;;;;;;;;24.10;60.00;;;;;;5053131;28;19956;-60
2022/08/20 07:53:07;;;;;;;;;;;24.10;60.00;;;;;;5045751;28;19939;-59
2022/08/20 07:55:34;;;;;;;;;;;24.10;59.90;;;;;;5042029;28;19940;-59
2022/08/20 07:58:06;;;;;;;;;;;24.10;60.00;;;;;;5034579;28;19982;-59
2022/08/20 08:00:34;;;;;;;;;;;24.10;59.90;;;;;;5022515;28;20223;-60
2022/08/20 08:03:01;;;;;;;;;;;24.10;59.80;;;;;;5032298;28;19937;-59
2022/08/20 08:05:28;;;;;;;;;;;24.10;59.70;;;;;;5049607;28;19963;-59
2022/08/20 08:07:55;;;;;;;;;;;24.10;59.60;;;;;;5049193;28;19924;-59
2022/08/20 08:10:21;;;;;;;;;;;24.10;59.60;;;;;;5036329;28;19928;-59
2022/08/20 08:12:49;;;;;;;;;;;24.10;59.50;;;;;;5036314;28;20017;-59
2022/08/20 08:15:17;;;;;;;;;;;24.10;59.40;;;;;;5045913;28;19932;-58
2022/08/20 08:17:47;;;;;;;;;;;24.10;59.40;;;;;;5030738;28;19931;-59
2022/08/20 08:20:14;;;;;;;;;;;24.20;59.40;;;;;;5033435;28;19966;-59
2022/08/20 08:22:41;;;;;;;;;;;24.20;59.40;;;;;;5054063;28;19946;-59
2022/08/20 08:25:09;;;;;;;;;;;24.20;59.30;;;;;;5052833;28;19974;-59
2022/08/20 08:27:35;;;;;;;;;;;24.20;59.30;;;;;;5032891;28;19971;-58
2022/08/20 08:30:03;;;;;;;;;;;24.20;59.30;;;;;;5032267;28;19925;-59
2022/08/20 08:32:31;;;;;;;;;;;24.20;59.20;;;;;;5049618;28;19967;-60
2022/08/20 08:34:59;;;;;;;;;;;24.20;59.20;;;;;;5033747;28;19927;-60
2022/08/20 08:37:25;;;;;;;;;;;24.20;59.20;;;;;;5049252;28;19933;-60
2022/08/20 08:39:52;;;;;;;;;;;24.20;59.20;;;;;;5027264;28;19921;-59
2022/08/20 08:42:24;;;;;;;;;;;24.20;59.10;;;;;;5053255;28;20004;-59
2022/08/20 08:44:52;;;;;;;;;;;24.20;59.00;;;;;;5044493;28;19925;-59
2022/08/20 08:47:21;;;;;;;;;;;24.30;59.10;;;;;;5024271;28;19979;-60
2022/08/20 08:49:48;;;;;;;;;;;24.30;59.00;;;;;;5049423;28;19921;-61
2022/08/20 08:52:18;;;;;;;;;;;24.30;59.00;;;;;;5027837;28;19928;-60
2022/08/20 08:54:46;;;;;;;;;;;24.20;59.40;;;;;;5035425;28;19921;-60
2022/08/20 08:57:12;;;;;;;;;;;24.30;58.80;;;;;;5031126;28;19967;-61
2022/08/20 08:59:40;;;;;;;;;;;24.30;58.70;;;;;;5042884;28;19928;-60
2022/08/20 09:02:07;;;;;;;;;;;24.30;58.70;;;;;;5031764;28;19921;-61
2022/08/20 09:04:34;;;;;;;;;;;24.30;58.60;;;;;;5049579;28;19920;-60
2022/08/20 09:07:02;;;;;;;;;;;24.30;58.60;;;;;;5030799;28;19921;-60
2022/08/20 09:09:31;;;;;;;;;;;24.30;58.50;;;;;;5029147;28;19924;-59
2022/08/20 09:12:01;;;;;;;;;;;24.30;58.40;;;;;;5028119;28;19928;-59
2022/08/20 09:14:28;;;;;;;;;;;24.30;58.40;;;;;;5033052;28;19936;-60
2022/08/20 09:16:55;;;;;;;;;;;24.30;58.30;;;;;;5030498;28;19943;-59
2022/08/20 09:19:22;;;;;;;;;;;24.30;58.30;;;;;;5049395;28;19925;-60
2022/08/20 09:21:48;;;;;;;;;;;24.30;58.30;;;;;;5033651;28;19970;-60
2022/08/20 09:24:15;;;;;;;;;;;24.30;58.30;;;;;;5049926;28;20242;-59
2022/08/20 09:26:43;;;;;;;;;;;24.30;58.30;;;;;;5048614;28;19925;-59
2022/08/20 09:29:10;;;;;;;;;;;24.40;58.20;;;;;;5046978;28;19936;-59
2022/08/20 09:31:37;;;;;;;;;;;24.30;58.10;;;;;;5030123;28;19975;-59
2022/08/20 09:34:03;;;;;;;;;;;24.40;58.10;;;;;;5037348;28;19952;-60
2022/08/20 09:36:30;;;;;;;;;;;24.40;58.00;;;;;;5030087;28;19933;-60
2022/08/20 09:38:57;;;;;;;;;;;24.30;58.00;;;;;;5031235;28;19967;-60
2022/08/20 09:41:24;;;;;;;;;;;24.30;57.90;;;;;;5051331;28;21021;-60
2022/08/20 09:43:53;;;;;;;;;;;24.40;58.00;;;;;;5035119;28;19925;-59
2022/08/20 09:46:20;;;;;;;;;;;24.30;57.90;;;;;;5028132;28;19960;-60
2022/08/20 09:48:46;;;;;;;;;;;24.40;57.90;;;;;;5032974;28;19986;-60
2022/08/20 09:51:13;;;;;;;;;;;24.40;57.90;;;;;;5031073;28;19935;-60
2022/08/20 09:53:40;;;;;;;;;;;24.40;57.90;;;;;;5032434;28;20015;-60
2022/08/20 09:56:06;;;;;;;;;;;24.40;57.80;;;;;;5027409;28;20016;-60
2022/08/20 09:58:34;;;;;;;;;;;24.40;57.80;;;;;;5029665;28;19925;-59
2022/08/20 10:01:03;;;;;;;;;;;24.40;57.70;;;;;;5030317;28;19927;-59
2022/08/20 10:03:30;;;;;;;;;;;24.40;57.70;;;;;;5028641;28;19927;-59
2022/08/20 10:05:58;;;;;;;;;;;24.40;57.60;;;;;;5038426;28;19929;-60
2022/08/20 10:08:25;;;;;;;;;;;24.40;57.60;;;;;;5051546;28;19920;-60
2022/08/20 10:10:52;;;;;;;;;;;24.40;57.50;;;;;;5039766;28;19974;-59
2022/08/20 10:13:18;;;;;;;;;;;24.40;57.50;;;;;;5040490;28;19924;-59
2022/08/20 10:15:45;;;;;;;;;;;24.40;57.40;;;;;;5036705;28;19967;-60
2022/08/20 10:18:13;;;;;;;;;;;24.40;57.40;;;;;;5031417;28;19976;-60
2022/08/20 10:20:40;;;;;;;;;;;24.50;57.50;;;;;;5035751;28;19985;-61
2022/08/20 10:23:06;;;;;;;;;;;24.50;57.40;;;;;;5031476;28;19933;-60
2022/08/20 10:25:33;;;;;;;;;;;24.50;57.40;;;;;;5032991;28;19931;-60
2022/08/20 10:28:00;;;;;;;;;;;24.50;57.40;;;;;;5033792;28;19921;-61
2022/08/20 10:30:27;;;;;;;;;;;24.50;57.30;;;;;;5039173;28;19920;-61
2022/08/20 10:32:54;;;;;;;;;;;24.50;57.30;;;;;;5053259;28;19921;-61
2022/08/20 10:35:22;;;;;;;;;;;24.50;57.20;;;;;;5052242;28;19921;-61
2022/08/20 10:37:49;;;;;;;;;;;24.50;57.10;;;;;;5032646;28;19925;-61
2022/08/20 10:40:15;;;;;;;;;;;24.50;57.10;;;;;;5034516;28;19921;-60
2022/08/20 10:42:42;;;;;;;;;;;24.50;57.00;;;;;;5031852;28;19920;-61
2022/08/20 10:45:09;;;;;;;;;;;24.50;57.00;;;;;;5033748;28;19978;-61
2022/08/20 10:47:37;;;;;;;;;;;24.50;57.60;;;;;;5033564;28;19975;-61
2022/08/20 10:50:04;;;;;;;;;;;24.50;56.90;;;;;;5049622;28;19925;-61
2022/08/20 10:52:32;;;;;;;;;;;24.50;56.90;;;;;;5033330;28;20022;-61
2022/08/20 10:54:59;;;;;;;;;;;24.60;57.00;;;;;;5036665;28;20055;-61
2022/08/20 10:57:27;;;;;;;;;;;24.50;56.90;;;;;;5033314;28;19966;-61
2022/08/20 10:59:54;;;;;;;;;;;24.50;56.80;;;;;;5044876;28;19937;-62
2022/08/20 11:02:21;;;;;;;;;;;24.50;56.80;;;;;;5031570;28;20016;-61
2022/08/20 11:04:47;;;;;;;;;;;24.50;56.70;;;;;;5033377;28;19974;-61
2022/08/20 11:07:15;;;;;;;;;;;24.50;56.70;;;;;;5031361;28;19932;-60
2022/08/20 11:09:43;;;;;;;;;;;24.50;56.50;;;;;;5032647;28;19920;-61
2022/08/20 11:12:10;;;;;;;;;;;24.50;56.40;;;;;;5050913;28;20343;-61
2022/08/20 11:14:36;;;;;;;;;;;24.50;56.40;;;;;;5050944;28;19925;-61
2022/08/20 11:17:03;;;;;;;;;;;24.50;56.30;;;;;;5031248;28;19933;-61
2022/08/20 11:19:30;;;;;;;;;;;24.50;56.40;;;;;;5031328;28;20387;-61
2022/08/20 11:21:57;;;;;;;;;;;24.50;56.40;;;;;;5027215;28;19971;-60
2022/08/20 11:24:24;;;;;;;;;;;24.50;56.10;;;;;;5030837;28;19928;-61
2022/08/20 11:26:53;;;;;;;;;;;24.50;56.70;;;;;;5031774;28;19929;-61
2022/08/20 11:29:21;;;;;;;;;;;24.50;56.20;;;;;;5051899;28;19925;-61
2022/08/20 11:31:48;;;;;;;;;;;24.50;56.20;;;;;;5052818;28;19924;-61
2022/08/20 11:34:14;;;;;;;;;;;24.50;56.10;;;;;;5020456;28;19921;-61
2022/08/20 11:36:41;;;;;;;;;;;24.50;56.10;;;;;;5023447;28;20447;-61
2022/08/20 11:39:08;;;;;;;;;;;24.50;56.00;;;;;;5030926;28;19928;-61
2022/08/20 11:41:34;;;;;;;;;;;24.50;55.90;;;;;;5036960;28;19920;-61
2022/08/20 11:44:03;;;;;;;;;;;24.50;55.90;;;;;;5035227;28;19927;-61
2022/08/20 11:46:31;;;;;;;;;;;24.50;55.70;;;;;;5032547;28;19943;-61
2022/08/20 11:48:58;;;;;;;;;;;24.50;55.80;;;;;;5050957;28;19987;-61
2022/08/20 11:51:25;;;;;;;;;;;24.50;55.80;;;;;;5049678;28;20013;-61
2022/08/20 11:53:52;;;;;;;;;;;24.50;55.70;;;;;;5030903;28;19925;-61
2022/08/20 11:56:19;;;;;;;;;;;24.50;55.60;;;;;;5031387;28;19925;-61
2022/08/20 11:58:46;;;;;;;;;;;24.50;55.60;;;;;;5033748;28;20409;-61
2022/08/20 12:01:14;;;;;;;;;;;24.50;55.50;;;;;;5031218;28;19964;-61
2022/08/20 12:03:41;;;;;;;;;;;24.50;55.50;;;;;;5014866;28;19928;-61
2022/08/20 12:06:08;;;;;;;;;;;24.50;55.50;;;;;;5029642;28;19921;-61
2022/08/20 12:08:35;;;;;;;;;;;24.50;55.40;;;;;;5044819;28;19968;-61
2022/08/20 12:11:04;;;;;;;;;;;24.50;55.30;;;;;;5029658;28;19947;-61
2022/08/20 12:13:31;;;;;;;;;;;24.50;55.30;;;;;;5035509;28;19925;-61
2022/08/20 12:15:58;;;;;;;;;;;24.50;55.20;;;;;;5030194;28;19999;-61
2022/08/20 12:18:26;;;;;;;;;;;24.50;55.10;;;;;;5044723;28;19971;-61
2022/08/20 12:20:53;;;;;;;;;;;24.50;55.10;;;;;;5024142;28;19960;-61
2022/08/20 12:23:19;;;;;;;;;;;24.50;55.00;;;;;;5031005;28;19921;-61
2022/08/20 12:25:46;;;;;;;;;;;24.50;54.90;;;;;;5022009;28;19944;-61
2022/08/20 12:28:13;;;;;;;;;;;24.50;54.90;;;;;;5032745;28;19974;-60
2022/08/20 12:30:40;;;;;;;;;;;24.50;54.80;;;;;;5049798;28;19925;-61
2022/08/20 12:33:07;;;;;;;;;;;24.50;54.80;;;;;;5026411;28;19956;-61
2022/08/20 12:35:35;;;;;;;;;;;24.50;54.80;;;;;;5019977;28;19942;-60
2022/08/20 12:38:02;;;;;;;;;;;24.50;54.70;;;;;;5028264;28;19921;-61
2022/08/20 12:40:29;;;;;;;;;;;24.50;54.60;;;;;;5044291;28;19921;-61
2022/08/20 12:42:56;;;;;;;;;;;24.50;54.60;;;;;;5026161;28;19926;-61
2022/08/20 12:45:22;;;;;;;;;;;24.50;54.50;;;;;;5034531;28;20270;-61
2022/08/20 12:47:49;;;;;;;;;;;24.50;54.40;;;;;;5036118;28;20376;-61
2022/08/20 12:50:17;;;;;;;;;;;24.50;54.30;;;;;;5028701;28;19927;-61
2022/08/20 12:52:45;;;;;;;;;;;24.40;54.10;;;;;;5030467;28;19963;-61
2022/08/20 12:55:12;;;;;;;;;;;24.50;54.20;;;;;;5031231;28;20326;-60
2022/08/20 12:57:40;;;;;;;;;;;24.50;54.00;;;;;;5028558;28;19963;-61
2022/08/20 13:00:08;;;;;;;;;;;24.50;54.00;;;;;;5049747;28;19929;-61
2022/08/20 13:02:36;;;;;;;;;;;24.50;53.90;;;;;;5032409;28;19928;-61
2022/08/20 13:05:03;;;;;;;;;;;24.50;53.80;;;;;;5030210;28;19921;-61
2022/08/20 13:07:30;;;;;;;;;;;24.50;53.70;;;;;;5055605;28;20210;-60
2022/08/20 13:09:58;;;;;;;;;;;24.50;53.60;;;;;;5031228;28;19974;-61
2022/08/20 13:12:24;;;;;;;;;;;24.50;53.40;;;;;;5031021;28;19953;-61
2022/08/20 13:14:51;;;;;;;;;;;24.50;53.20;;;;;;5031432;28;19971;-61
2022/08/20 13:17:18;;;;;;;;;;;24.50;53.20;;;;;;5030651;28;19966;-61
2022/08/20 13:19:44;;;;;;;;;;;24.40;53.10;;;;;;5047604;28;20023;-61
2022/08/20 13:22:12;;;;;;;;;;;24.40;53.00;;;;;;5033228;28;19928;-60
2022/08/20 13:24:38;;;;;;;;;;;24.50;53.00;;;;;;5049376;28;20301;-61
2022/08/20 13:27:07;;;;;;;;;;;24.40;52.60;;;;;;5036559;28;19920;-61
2022/08/20 13:29:34;;;;;;;;;;;24.40;52.40;;;;;;5030919;28;19931;-60
2022/08/20 13:32:01;;;;;;;;;;;24.50;52.50;;;;;;5051160;28;19921;-61
2022/08/20 13:34:28;;;;;;;;;;;24.40;52.30;;;;;;5033325;28;20263;-61
2022/08/20 13:36:55;;;;;;;;;;;24.40;52.50;;;;;;5033121;28;19932;-61
2022/08/20 13:39:22;;;;;;;;;;;24.40;52.20;;;;;;5034967;28;20404;-61
2022/08/20 13:41:48;;;;;;;;;;;24.40;53.00;;;;;;5036403;28;19924;-61
2022/08/20 13:44:17;;;;;;;;;;;24.40;52.20;;;;;;5057884;28;19921;-61
2022/08/20 13:46:43;;;;;;;;;;;24.40;51.90;;;;;;5038435;28;19921;-61
2022/08/20 13:49:10;;;;;;;;;;;24.40;51.80;;;;;;5033239;28;19928;-61
2022/08/20 13:51:37;;;;;;;;;;;24.40;51.80;;;;;;5029453;28;19971;-62
2022/08/20 13:54:04;;;;;;;;;;;24.40;51.50;;;;;;5042173;28;19921;-61
2022/08/20 13:56:31;;;;;;;;;;;24.40;51.70;;;;;;5033169;28;19933;-61
2022/08/20 13:58:57;;;;;;;;;;;24.40;51.90;;;;;;5027859;28;19928;-62
2022/08/20 14:01:25;;;;;;;;;;;24.40;52.00;;;;;;5034657;28;20035;-60
2022/08/20 14:03:52;;;;;;;;;;;24.40;52.10;;;;;;5033739;28;20011;-62
2022/08/20 14:06:19;;;;;;;;;;;24.40;52.20;;;;;;5037281;28;19928;-62
2022/08/20 14:08:45;;;;;;;;;;;24.40;52.20;;;;;;5035267;28;19982;-61
2022/08/20 14:11:12;;;;;;;;;;;24.40;52.10;;;;;;5034443;28;19921;-61
2022/08/20 14:13:39;;;;;;;;;;;24.50;52.20;;;;;;5053363;28;19974;-63
2022/08/20 14:16:06;;;;;;;;;;;24.50;52.20;;;;;;5033093;28;19976;-61
2022/08/20 14:18:34;;;;;;;;;;;24.50;52.10;;;;;;5034094;28;20318;-61
2022/08/20 14:21:00;;;;;;;;;;;24.50;52.20;;;;;;5031823;28;19957;-62